Maersk Dispatcher — XJAJ — position and weather

sailwx.info

Track history (hours):
 
Tides and Currents Weather Stations Pressure Air Temp Water Temp Dewpoint Dewpoint Depression Visibility Wind Speed Wind Dir Waves Ship Positions

Maersk Dispatcher

Last reported at 2015-Apr-18 01:22 UTC. Time now 2015-Apr-18 16:47 UTC.
Position N 47°29' W 052°12'.

Length 89 m; draft 6.8 m.

Type: Other ship. MMSI: 316013080.

Date/timePositionNaut miles runAvg speedWind from/ knotsBaromVisibWave heightAir tempDewpointWater temp
2015-Apr-18 01:22N 47°29' W 052°12'1112.8
2015-Apr-18 00:30N 47°32' W 052°28'9 9.3
2015-Apr-17 23:29N 47°34' W 052°42'0 0.0
2015-Apr-17 21:14N 47°34' W 052°42'0 0.0
2015-Apr-17 20:32N 47°34' W 052°42'0 0.0
2015-Apr-17 19:26N 47°34' W 052°42'0 0.0
2015-Apr-17 14:20N 47°34' W 052°42'0 0.0
2015-Apr-17 12:20N 47°34' W 052°42'0 0.0
2015-Apr-17 11:32N 47°34' W 052°42'0 0.0
2015-Apr-17 10:32N 47°34' W 052°42'0 0.1
2015-Apr-17 08:23N 47°34' W 052°42'0 0.0
2015-Apr-17 07:26N 47°34' W 052°42'0 0.0
2015-Apr-17 06:29N 47°34' W 052°42'0 0.0
2015-Apr-17 04:12N 47°34' W 052°42'0 0.0
2015-Apr-17 03:32N 47°34' W 052°42'0 0.0
2015-Apr-16 20:26N 47°34' W 052°42'0 0.0
2015-Apr-16 15:32N 47°34' W 052°42'0 0.0
2015-Apr-16 14:32N 47°34' W 052°42'0 0.0
2015-Apr-16 13:32N 47°34' W 052°42'0 0.0
2015-Apr-16 12:20N 47°34' W 052°42'0 0.0
2015-Apr-16 11:26N 47°34' W 052°42'0 0.0
2015-Apr-16 10:26N 47°34' W 052°42'0 0.0
2015-Apr-16 09:32N 47°34' W 052°42'0 0.0
2015-Apr-16 08:20N 47°34' W 052°42'0 0.0
2015-Apr-16 07:26N 47°34' W 052°42'0 0.0
2015-Apr-16 06:32N 47°34' W 052°42'0 0.0
2015-Apr-16 05:32N 47°34' W 052°42'0 0.0
2015-Apr-16 04:32N 47°34' W 052°42'0 0.0
2015-Apr-16 03:32N 47°34' W 052°42'0 0.0
2015-Apr-16 02:32N 47°34' W 052°42'0 0.0
2015-Apr-16 01:29N 47°34' W 052°42'0 0.0
2015-Apr-16 00:32N 47°34' W 052°42'0 0.0
2015-Apr-15 23:20N 47°34' W 052°42'0 0.0
2015-Apr-15 22:32N 47°34' W 052°42'0 0.0
2015-Apr-15 21:23N 47°34' W 052°42'0 0.0
2015-Apr-15 20:29N 47°34' W 052°42'0 0.0
2015-Apr-15 19:26N 47°34' W 052°42'0 0.0
2015-Apr-15 18:23N 47°34' W 052°42'0 0.0
2015-Apr-15 17:29N 47°34' W 052°42'0 0.0
2015-Apr-15 16:26N 47°34' W 052°42'2 2.1
2015-Apr-15 15:27N 47°34' W 052°39'7 7.9
2015-Apr-15 14:30N 47°38' W 052°30'1 1.5
2015-Apr-15 13:32N 47°37' W 052°30'4 4.1
2015-Apr-15 12:29N 47°35' W 052°36'4 3.9
2015-Apr-15 11:28N 47°34' W 052°42'0 0.0
2015-Apr-15 10:33N 47°34' W 052°42'0 0.0
2015-Apr-15 09:28N 47°34' W 052°42'0 0.0
2015-Apr-15 08:28N 47°34' W 052°42'0 0.0
2015-Apr-15 07:28N 47°34' W 052°42'0 0.0
2015-Apr-15 06:28N 47°34' W 052°42'0 0.0
2015-Apr-15 05:28N 47°34' W 052°42'0 0.0
2015-Apr-15 04:28N 47°34' W 052°42'0 0.0
2015-Apr-15 03:28N 47°34' W 052°42'0 0.0
2015-Apr-15 02:28N 47°34' W 052°42'0 0.0
2015-Apr-15 01:31N 47°34' W 052°42'0 0.0
2015-Apr-15 00:31N 47°34' W 052°42'0 0.2
2015-Apr-14 23:16N 47°34' W 052°42'0 0.0
2015-Apr-14 22:31N 47°34' W 052°42'0 0.1
2015-Apr-14 21:31N 47°34' W 052°42'0 0.0
2015-Apr-14 20:30N 47°34' W 052°42'5 4.8
2015-Apr-14 19:31N 47°33' W 052°35'  
2015-Apr-11 16:29N 47°30' W 052°19'8 8.6
2015-Apr-11 15:33N 47°33' W 052°31'8 7.5
2015-Apr-11 14:31N 47°34' W 052°42'0 0.0
2015-Apr-11 13:17N 47°34' W 052°42'0 0.0
2015-Apr-11 12:17N 47°34' W 052°42'0 0.0
2015-Apr-11 11:29N 47°34' W 052°42'0 0.0
2015-Apr-11 10:29N 47°34' W 052°42'0 0.0
2015-Apr-11 09:23N 47°34' W 052°42'0 0.0
2015-Apr-11 08:29N 47°34' W 052°42'0 0.0
2015-Apr-11 07:29N 47°34' W 052°42'0 0.0
2015-Apr-11 06:29N 47°34' W 052°42'0 0.0
2015-Apr-11 05:23N 47°34' W 052°42'0 0.0
2015-Apr-11 04:26N 47°34' W 052°42'0 0.0
2015-Apr-11 03:20N 47°34' W 052°42'0 0.0
2015-Apr-11 02:14N 47°34' W 052°42'0 0.0
2015-Apr-11 01:32N 47°34' W 052°42'0 0.0
2015-Apr-11 00:32N 47°34' W 052°42'0 0.0
2015-Apr-10 23:08N 47°34' W 052°42'0 0.2
2015-Apr-10 22:32N 47°34' W 052°42'0 0.0
2015-Apr-10 21:26N 47°34' W 052°42'0 0.0
2015-Apr-10 19:26N 47°34' W 052°42'0 0.0
2015-Apr-10 18:11N 47°34' W 052°42'0 0.0
2015-Apr-10 17:29N 47°34' W 052°42'0 0.0
2015-Apr-10 16:32N 47°34' W 052°42'0 0.0
2015-Apr-10 15:26N 47°34' W 052°42'0 0.0
2015-Apr-10 14:05N 47°34' W 052°42'0 0.0
2015-Apr-10 13:26N 47°34' W 052°42'0 0.0
2015-Apr-10 12:23N 47°34' W 052°42'0 0.0
2015-Apr-10 11:29N 47°34' W 052°42'0 0.0
2015-Apr-10 10:29N 47°34' W 052°42'0 0.0
2015-Apr-10 09:29N 47°34' W 052°42'0 0.0
2015-Apr-10 08:05N 47°34' W 052°42'0 0.0
2015-Apr-10 07:29N 47°34' W 052°42'0 0.0
2015-Apr-10 06:29N 47°34' W 052°42'0 0.0
2015-Apr-10 05:29N 47°34' W 052°42'0 0.0
2015-Apr-10 04:23N 47°34' W 052°42'0 0.0
2015-Apr-10 03:29N 47°34' W 052°42'0 0.0
2015-Apr-10 02:29N 47°34' W 052°42'0 0.0
2015-Apr-10 01:26N 47°34' W 052°42'0 0.0
2015-Apr-10 00:32N 47°34' W 052°42'0 0.0
2015-Apr-09 23:29N 47°34' W 052°42'0 0.0
2015-Apr-09 22:32N 47°34' W 052°42'0 0.0
2015-Apr-09 21:32N 47°34' W 052°42'0 0.0
2015-Apr-09 20:23N 47°34' W 052°42'0 0.0
2015-Apr-09 19:29N 47°34' W 052°42'0 0.0
2015-Apr-09 18:29N 47°34' W 052°42'0 0.0
2015-Apr-09 17:23N 47°34' W 052°42'0 0.0
2015-Apr-09 16:11N 47°34' W 052°42'0 0.0
2015-Apr-09 15:20N 47°34' W 052°42'0 0.0
2015-Apr-09 14:14N 47°34' W 052°42'0 0.0
2015-Apr-09 13:17N 47°34' W 052°42'0 0.5
2015-Apr-09 12:24N 47°34' W 052°42'0 0.0
2015-Apr-09 11:18N 47°34' W 052°42'0 0.0
2015-Apr-09 09:06N 47°34' W 052°42'0 0.0
2015-Apr-09 08:30N 47°34' W 052°42'0 0.1
2015-Apr-09 07:31N 47°34' W 052°42'8 8.0
2015-Apr-09 06:33N 47°27' W 052°36'5 0.6
2015-Apr-08 21:05N 47°33' W 052°36'5 8.5
2015-Apr-08 20:32N 47°34' W 052°42'0 0.0
2015-Apr-08 18:12N 47°34' W 052°42'6 8.5
2015-Apr-08 17:33N 47°33' W 052°34'  
Track history (hours):
 
Tides and Currents Weather Stations Pressure Air Temp Water Temp Dewpoint Dewpoint Depression Visibility Wind Speed Wind Dir Waves Ship Positions

Maersk Dispatcher

Last reported at 2015-Apr-18 01:22 UTC. Time now 2015-Apr-18 16:47 UTC.
Position N 47°29' W 052°12'.

Length 89 m; draft 6.8 m.

Type: Other ship. MMSI: 316013080.

Date/timePositionNaut miles runAvg speedWind from/ knotsBaromVisibWave heightAir tempDewpointWater temp
2015-Apr-18 01:22N 47°29' W 052°12'1112.8
2015-Apr-18 00:30N 47°32' W 052°28'9 9.3
2015-Apr-17 23:29N 47°34' W 052°42'0 0.0
2015-Apr-17 21:14N 47°34' W 052°42'0 0.0
2015-Apr-17 20:32N 47°34' W 052°42'0 0.0
2015-Apr-17 19:26N 47°34' W 052°42'0 0.0
2015-Apr-17 14:20N 47°34' W 052°42'0 0.0
2015-Apr-17 12:20N 47°34' W 052°42'0 0.0
2015-Apr-17 11:32N 47°34' W 052°42'0 0.0
2015-Apr-17 10:32N 47°34' W 052°42'0 0.1
2015-Apr-17 08:23N 47°34' W 052°42'0 0.0
2015-Apr-17 07:26N 47°34' W 052°42'0 0.0
2015-Apr-17 06:29N 47°34' W 052°42'0 0.0
2015-Apr-17 04:12N 47°34' W 052°42'0 0.0
2015-Apr-17 03:32N 47°34' W 052°42'0 0.0
2015-Apr-16 20:26N 47°34' W 052°42'0 0.0
2015-Apr-16 15:32N 47°34' W 052°42'0 0.0
2015-Apr-16 14:32N 47°34' W 052°42'0 0.0
2015-Apr-16 13:32N 47°34' W 052°42'0 0.0
2015-Apr-16 12:20N 47°34' W 052°42'0 0.0
2015-Apr-16 11:26N 47°34' W 052°42'0 0.0
2015-Apr-16 10:26N 47°34' W 052°42'0 0.0
2015-Apr-16 09:32N 47°34' W 052°42'0 0.0
2015-Apr-16 08:20N 47°34' W 052°42'0 0.0
2015-Apr-16 07:26N 47°34' W 052°42'0 0.0
2015-Apr-16 06:32N 47°34' W 052°42'0 0.0
2015-Apr-16 05:32N 47°34' W 052°42'0 0.0
2015-Apr-16 04:32N 47°34' W 052°42'0 0.0
2015-Apr-16 03:32N 47°34' W 052°42'0 0.0
2015-Apr-16 02:32N 47°34' W 052°42'0 0.0
2015-Apr-16 01:29N 47°34' W 052°42'0 0.0
2015-Apr-16 00:32N 47°34' W 052°42'0 0.0
2015-Apr-15 23:20N 47°34' W 052°42'0 0.0
2015-Apr-15 22:32N 47°34' W 052°42'0 0.0
2015-Apr-15 21:23N 47°34' W 052°42'0 0.0
2015-Apr-15 20:29N 47°34' W 052°42'0 0.0
2015-Apr-15 19:26N 47°34' W 052°42'0 0.0
2015-Apr-15 18:23N 47°34' W 052°42'0 0.0
2015-Apr-15 17:29N 47°34' W 052°42'0 0.0
2015-Apr-15 16:26N 47°34' W 052°42'2 2.1
2015-Apr-15 15:27N 47°34' W 052°39'7 7.9
2015-Apr-15 14:30N 47°38' W 052°30'1 1.5
2015-Apr-15 13:32N 47°37' W 052°30'4 4.1
2015-Apr-15 12:29N 47°35' W 052°36'4 3.9
2015-Apr-15 11:28N 47°34' W 052°42'0 0.0
2015-Apr-15 10:33N 47°34' W 052°42'0 0.0
2015-Apr-15 09:28N 47°34' W 052°42'0 0.0
2015-Apr-15 08:28N 47°34' W 052°42'0 0.0
2015-Apr-15 07:28N 47°34' W 052°42'0 0.0
2015-Apr-15 06:28N 47°34' W 052°42'0 0.0
2015-Apr-15 05:28N 47°34' W 052°42'0 0.0
2015-Apr-15 04:28N 47°34' W 052°42'0 0.0
2015-Apr-15 03:28N 47°34' W 052°42'0 0.0
2015-Apr-15 02:28N 47°34' W 052°42'0 0.0
2015-Apr-15 01:31N 47°34' W 052°42'0 0.0
2015-Apr-15 00:31N 47°34' W 052°42'0 0.2
2015-Apr-14 23:16N 47°34' W 052°42'0 0.0
2015-Apr-14 22:31N 47°34' W 052°42'0 0.1
2015-Apr-14 21:31N 47°34' W 052°42'0 0.0
2015-Apr-14 20:30N 47°34' W 052°42'5 4.8
2015-Apr-14 19:31N 47°33' W 052°35'  
2015-Apr-11 16:29N 47°30' W 052°19'8 8.6
2015-Apr-11 15:33N 47°33' W 052°31'8 7.5
2015-Apr-11 14:31N 47°34' W 052°42'0 0.0
2015-Apr-11 13:17N 47°34' W 052°42'0 0.0
2015-Apr-11 12:17N 47°34' W 052°42'0 0.0
2015-Apr-11 11:29N 47°34' W 052°42'0 0.0
2015-Apr-11 10:29N 47°34' W 052°42'0 0.0
2015-Apr-11 09:23N 47°34' W 052°42'0 0.0
2015-Apr-11 08:29N 47°34' W 052°42'0 0.0
2015-Apr-11 07:29N 47°34' W 052°42'0 0.0
2015-Apr-11 06:29N 47°34' W 052°42'0 0.0
2015-Apr-11 05:23N 47°34' W 052°42'0 0.0
2015-Apr-11 04:26N 47°34' W 052°42'0 0.0
2015-Apr-11 03:20N 47°34' W 052°42'0 0.0
2015-Apr-11 02:14N 47°34' W 052°42'0 0.0
2015-Apr-11 01:32N 47°34' W 052°42'0 0.0
2015-Apr-11 00:32N 47°34' W 052°42'0 0.0
2015-Apr-10 23:08N 47°34' W 052°42'0 0.2
2015-Apr-10 22:32N 47°34' W 052°42'0 0.0
2015-Apr-10 21:26N 47°34' W 052°42'0 0.0
2015-Apr-10 19:26N 47°34' W 052°42'0 0.0
2015-Apr-10 18:11N 47°34' W 052°42'0 0.0
2015-Apr-10 17:29N 47°34' W 052°42'0 0.0
2015-Apr-10 16:32N 47°34' W 052°42'0 0.0
2015-Apr-10 15:26N 47°34' W 052°42'0 0.0
2015-Apr-10 14:05N 47°34' W 052°42'0 0.0
2015-Apr-10 13:26N 47°34' W 052°42'0 0.0
2015-Apr-10 12:23N 47°34' W 052°42'0 0.0
2015-Apr-10 11:29N 47°34' W 052°42'0 0.0
2015-Apr-10 10:29N 47°34' W 052°42'0 0.0
2015-Apr-10 09:29N 47°34' W 052°42'0 0.0
2015-Apr-10 08:05N 47°34' W 052°42'0 0.0
2015-Apr-10 07:29N 47°34' W 052°42'0 0.0
2015-Apr-10 06:29N 47°34' W 052°42'0 0.0
2015-Apr-10 05:29N 47°34' W 052°42'0 0.0
2015-Apr-10 04:23N 47°34' W 052°42'0 0.0
2015-Apr-10 03:29N 47°34' W 052°42'0 0.0
2015-Apr-10 02:29N 47°34' W 052°42'0 0.0
2015-Apr-10 01:26N 47°34' W 052°42'0 0.0
2015-Apr-10 00:32N 47°34' W 052°42'0 0.0
2015-Apr-09 23:29N 47°34' W 052°42'0 0.0
2015-Apr-09 22:32N 47°34' W 052°42'0 0.0
2015-Apr-09 21:32N 47°34' W 052°42'0 0.0
2015-Apr-09 20:23N 47°34' W 052°42'0 0.0
2015-Apr-09 19:29N 47°34' W 052°42'0 0.0
2015-Apr-09 18:29N 47°34' W 052°42'0 0.0
2015-Apr-09 17:23N 47°34' W 052°42'0 0.0
2015-Apr-09 16:11N 47°34' W 052°42'0 0.0
2015-Apr-09 15:20N 47°34' W 052°42'0 0.0
2015-Apr-09 14:14N 47°34' W 052°42'0 0.0
2015-Apr-09 13:17N 47°34' W 052°42'0 0.5
2015-Apr-09 12:24N 47°34' W 052°42'0 0.0
2015-Apr-09 11:18N 47°34' W 052°42'0 0.0
2015-Apr-09 09:06N 47°34' W 052°42'0 0.0
2015-Apr-09 08:30N 47°34' W 052°42'0 0.1
2015-Apr-09 07:31N 47°34' W 052°42'8 8.0
2015-Apr-09 06:33N 47°27' W 052°36'5 0.6
2015-Apr-08 21:05N 47°33' W 052°36'5 8.5
2015-Apr-08 20:32N 47°34' W 052°42'0 0.0
2015-Apr-08 18:12N 47°34' W 052°42'6 8.5
2015-Apr-08 17:33N 47°33' W 052°34'  

Dump ship's entire track history